Time,TemperatureF,DewpointF,PressureIn,WindDirection,WindDirectionDegrees,WindSpeedMPH,WindSpeedGustMPH,Humidity,HourlyPrecipIn,Conditions,Clouds,dailyrainin,SoftwareType,DateUTC
2013-04-10 00:02:00,15.0,15.0,-100.00,NNW,341,4.0,15.0,98,-99.99,,,-99.99,,2013-04-10 06:02:00,
2013-04-10 00:12:00,15.0,15.0,-100.00,NNW,341,4.0,15.0,98,-99.99,,,-99.99,,2013-04-10 06:12:00,
2013-04-10 00:22:00,15.0,15.0,-100.00,NNW,338,4.0,11.0,98,-99.99,,,-99.99,,2013-04-10 06:22:00,
2013-04-10 00:32:00,15.0,15.0,-100.00,NNW,342,3.0,10.0,98,-99.99,,,-99.99,,2013-04-10 06:32:00,
2013-04-10 00:42:00,15.0,15.0,-100.00,NNW,342,3.0,10.0,98,-99.99,,,-99.99,,2013-04-10 06:42:00,
2013-04-10 00:52:00,15.0,15.0,-100.00,NNW,336,2.0,8.0,98,-99.99,,,-99.99,,2013-04-10 06:52:00,
2013-04-10 01:02:00,14.0,14.0,-100.00,NNW,333,3.0,6.0,100,-99.99,,,-99.99,,2013-04-10 07:02:00,
2013-04-10 01:12:00,14.0,14.0,-100.00,NNW,333,3.0,6.0,100,-99.99,,,-99.99,,2013-04-10 07:12:00,
2013-04-10 01:22:00,13.0,13.0,-100.00,NW,325,3.0,9.0,100,-99.99,,,-99.99,,2013-04-10 07:22:00,
2013-04-10 01:32:00,13.0,13.0,-100.00,NNW,342,3.0,12.0,100,-99.99,,,-99.99,,2013-04-10 07:32:00,
2013-04-10 01:42:00,13.0,13.0,-100.00,NNW,342,3.0,12.0,100,-99.99,,,-99.99,,2013-04-10 07:42:00,
2013-04-10 01:52:00,13.0,13.0,-100.00,NNW,336,3.0,7.0,100,-99.99,,,-99.99,,2013-04-10 07:52:00,
2013-04-10 02:02:00,13.0,13.0,-100.00,NW,321,2.0,8.0,99,-99.99,,,-99.99,,2013-04-10 08:02:00,
2013-04-10 02:12:00,13.0,13.0,-100.00,NW,321,2.0,8.0,99,-99.99,,,-99.99,,2013-04-10 08:12:00,
2013-04-10 02:22:00,14.0,14.0,-100.00,NW,322,2.0,7.0,100,-99.99,,,-99.99,,2013-04-10 08:22:00,
2013-04-10 02:32:00,14.0,14.0,-100.00,NW,325,2.0,5.0,99,-99.99,,,-99.99,,2013-04-10 08:32:00,
2013-04-10 02:42:00,14.0,14.0,-100.00,NW,325,2.0,5.0,99,-99.99,,,-99.99,,2013-04-10 08:42:00,
2013-04-10 02:52:00,14.0,14.0,-100.00,NW,312,2.0,4.0,100,-99.99,,,-99.99,,2013-04-10 08:52:00,
2013-04-10 03:02:00,15.0,15.0,-100.00,NW,323,2.0,5.0,99,-99.99,,,-99.99,,2013-04-10 09:02:00,
2013-04-10 03:12:00,15.0,15.0,-100.00,NW,323,2.0,5.0,99,-99.99,,,-99.99,,2013-04-10 09:12:00,
2013-04-10 03:22:00,15.0,15.0,-100.00,NNW,339,1.0,4.0,99,-99.99,,,-99.99,,2013-04-10 09:22:00,
2013-04-10 03:32:00,15.0,15.0,-100.00,NNW,342,1.0,4.0,99,-99.99,,,-99.99,,2013-04-10 09:32:00,
2013-04-10 03:42:00,15.0,15.0,-100.00,NNW,342,1.0,4.0,99,-99.99,,,-99.99,,2013-04-10 09:42:00,
2013-04-10 03:53:00,15.0,15.0,-100.00,NNW,335,1.0,3.0,100,-99.99,,,-99.99,,2013-04-10 09:53:00,
2013-04-10 04:02:00,15.0,15.0,-100.00,NNW,334,1.0,3.0,100,-99.99,,,-99.99,,2013-04-10 10:02:00,
2013-04-10 04:12:00,15.0,15.0,-100.00,NNW,334,1.0,3.0,100,-99.99,,,-99.99,,2013-04-10 10:12:00,
2013-04-10 04:23:00,16.0,16.0,-100.00,NW,314,1.0,4.0,100,-99.99,,,-99.99,,2013-04-10 10:23:00,
2013-04-10 04:33:00,16.0,16.0,-100.00,NW,309,1.0,3.0,100,-99.99,,,-99.99,,2013-04-10 10:33:00,
2013-04-10 04:42:00,16.0,16.0,-100.00,NW,309,1.0,3.0,100,-99.99,,,-99.99,,2013-04-10 10:42:00,
2013-04-10 04:52:00,16.0,16.0,-100.00,NNW,338,1.0,3.0,100,-99.99,,,-99.99,,2013-04-10 10:52:00,
2013-04-10 05:02:00,17.0,17.0,-100.00,NNW,339,2.0,4.0,100,-99.99,,,-99.99,,2013-04-10 11:02:00,
2013-04-10 05:12:00,17.0,17.0,-100.00,NNW,339,2.0,4.0,100,-99.99,,,-99.99,,2013-04-10 11:12:00,
2013-04-10 05:22:00,17.0,17.0,-100.00,NNW,339,2.0,5.0,100,-99.99,,,-99.99,,2013-04-10 11:22:00,
2013-04-10 05:32:00,17.0,17.0,-100.00,NNW,340,2.0,5.0,100,-99.99,,,-99.99,,2013-04-10 11:32:00,
2013-04-10 05:42:00,17.0,17.0,-100.00,NNW,340,2.0,5.0,100,-99.99,,,-99.99,,2013-04-10 11:42:00,
2013-04-10 05:53:00,17.0,17.0,-100.00,NW,325,1.0,6.0,100,-99.99,,,-99.99,,2013-04-10 11:53:00,
2013-04-10 06:02:00,17.0,17.0,-100.00,NNW,329,1.0,6.0,100,-99.99,,,-99.99,,2013-04-10 12:02:00,
2013-04-10 06:12:00,17.0,17.0,-100.00,NNW,329,1.0,6.0,100,-99.99,,,-99.99,,2013-04-10 12:12:00,
2013-04-10 06:22:00,17.0,17.0,-100.00,NW,326,2.0,5.0,100,-99.99,,,-99.99,,2013-04-10 12:22:00,
2013-04-10 06:32:00,17.0,17.0,-100.00,NNW,331,2.0,4.0,100,-99.99,,,-99.99,,2013-04-10 12:32:00,
2013-04-10 06:42:00,17.0,17.0,-100.00,NNW,331,2.0,4.0,100,-99.99,,,-99.99,,2013-04-10 12:42:00,
2013-04-10 06:52:00,17.0,17.0,-100.00,NNW,336,1.0,9.0,100,-99.99,,,-99.99,,2013-04-10 12:52:00,
2013-04-10 07:02:00,18.0,18.0,-100.00,NNW,333,3.0,8.0,100,-99.99,,,-99.99,,2013-04-10 13:02:00,
2013-04-10 07:12:00,18.0,18.0,-100.00,NNW,333,3.0,8.0,100,-99.99,,,-99.99,,2013-04-10 13:12:00,
2013-04-10 07:23:00,18.0,18.0,-100.00,NNW,348,1.0,5.0,100,-99.99,,,-99.99,,2013-04-10 13:23:00,
2013-04-10 07:32:00,18.0,18.0,-100.00,NNW,341,1.0,6.0,100,-99.99,,,-99.99,,2013-04-10 13:32:00,
2013-04-10 07:42:00,18.0,18.0,-100.00,NNW,341,1.0,6.0,100,-99.99,,,-99.99,,2013-04-10 13:42:00,
2013-04-10 07:53:00,18.0,18.0,-100.00,NNW,337,1.0,4.0,100,-99.99,,,-99.99,,2013-04-10 13:53:00,
2013-04-10 08:02:00,19.0,19.0,-100.00,NNW,338,2.0,6.0,100,-99.99,,,-99.99,,2013-04-10 14:02:00,
2013-04-10 08:12:00,19.0,19.0,-100.00,NNW,338,2.0,6.0,100,-99.99,,,-99.99,,2013-04-10 14:12:00,
2013-04-10 08:22:00,23.0,22.0,-100.00,NNW,336,2.0,7.0,95,-99.99,,,-99.99,,2013-04-10 14:22:00,
2013-04-10 08:32:00,24.0,22.0,-100.00,NNW,344,2.0,7.0,90,-99.99,,,-99.99,,2013-04-10 14:32:00,
2013-04-10 09:02:00,25.0,21.0,-100.00,NNW,335,3.0,9.0,85,-99.99,,,-99.99,,2013-04-10 15:02:00,
2013-04-10 09:12:00,25.0,21.0,-100.00,NNW,335,3.0,9.0,85,-99.99,,,-99.99,,2013-04-10 15:12:00,
2013-04-10 09:22:00,25.0,21.0,-100.00,NNW,335,3.0,9.0,85,-99.99,,,-99.99,,2013-04-10 15:22:00,
2013-04-10 09:32:00,27.0,20.0,-100.00,NNW,339,2.0,8.0,75,-99.99,,,-99.99,,2013-04-10 15:32:00,
2013-04-10 09:43:00,27.0,20.0,-100.00,NNW,339,2.0,8.0,75,-99.99,,,-99.99,,2013-04-10 15:43:00,
2013-04-10 09:52:00,26.0,19.0,-100.00,NNW,346,5.0,15.0,74,-99.99,,,-99.99,,2013-04-10 15:52:00,
2013-04-10 10:02:00,25.0,19.0,-100.00,NNW,344,5.0,12.0,76,-99.99,,,-99.99,,2013-04-10 16:02:00,
2013-04-10 10:12:00,25.0,19.0,-100.00,NNW,344,5.0,12.0,76,-99.99,,,-99.99,,2013-04-10 16:12:00,
2013-04-10 10:23:00,25.0,19.0,-100.00,North,350,6.0,12.0,76,-99.99,,,-99.99,,2013-04-10 16:23:00,
2013-04-10 10:32:00,25.0,18.0,-100.00,NNW,345,6.0,13.0,75,-99.99,,,-99.99,,2013-04-10 16:32:00,
2013-04-10 10:43:00,25.0,18.0,-100.00,NNW,345,6.0,13.0,75,-99.99,,,-99.99,,2013-04-10 16:43:00,
2013-04-10 10:53:00,25.0,18.0,-100.00,NNW,341,6.0,13.0,75,-99.99,,,-99.99,,2013-04-10 16:53:00,
2013-04-10 11:02:00,25.0,18.0,-100.00,NNW,346,5.0,11.0,75,-99.99,,,-99.99,,2013-04-10 17:02:00,
2013-04-10 11:12:00,25.0,18.0,-100.00,NNW,346,5.0,11.0,75,-99.99,,,-99.99,,2013-04-10 17:12:00,
2013-04-10 11:22:00,25.0,18.0,-100.00,NNW,344,5.0,12.0,75,-99.99,,,-99.99,,2013-04-10 17:22:00,
2013-04-10 11:33:00,27.0,20.0,-100.00,NNW,339,3.0,8.0,74,-99.99,,,-99.99,,2013-04-10 17:33:00,
2013-04-10 11:42:00,27.0,20.0,-100.00,NNW,339,3.0,8.0,74,-99.99,,,-99.99,,2013-04-10 17:42:00,
2013-04-10 11:52:00,29.0,21.0,-100.00,NNW,333,3.0,10.0,71,-99.99,,,-99.99,,2013-04-10 17:52:00,
2013-04-10 12:02:00,29.0,20.0,-100.00,NNW,342,4.0,13.0,69,-99.99,,,-99.99,,2013-04-10 18:02:00,
2013-04-10 12:12:00,29.0,20.0,-100.00,NNW,342,4.0,13.0,69,-99.99,,,-99.99,,2013-04-10 18:12:00,
2013-04-10 12:22:00,30.0,21.0,-100.00,NNW,343,4.0,11.0,70,-99.99,,,-99.99,,2013-04-10 18:22:00,
2013-04-10 12:32:00,30.0,21.0,-100.00,NNW,343,4.0,10.0,70,-99.99,,,-99.99,,2013-04-10 18:32:00,
2013-04-10 12:42:00,30.0,21.0,-100.00,NNW,343,4.0,10.0,70,-99.99,,,-99.99,,2013-04-10 18:42:00,
2013-04-10 12:52:00,29.0,20.0,-100.00,NNW,344,7.0,19.0,69,-99.99,,,-99.99,,2013-04-10 18:52:00,
2013-04-10 13:02:00,29.0,20.0,-100.00,NNW,343,7.0,17.0,70,-99.99,,,-99.99,,2013-04-10 19:02:00,
2013-04-10 13:12:00,29.0,20.0,-100.00,NNW,343,7.0,17.0,70,-99.99,,,-99.99,,2013-04-10 19:12:00,
2013-04-10 13:22:00,29.0,20.0,-100.00,NNW,348,7.0,15.0,70,-99.99,,,-99.99,,2013-04-10 19:22:00,
2013-04-10 13:32:00,29.0,21.0,-100.00,NNW,343,9.0,16.0,72,-99.99,,,-99.99,,2013-04-10 19:32:00,
2013-04-10 13:42:00,29.0,21.0,-100.00,NNW,343,9.0,16.0,72,-99.99,,,-99.99,,2013-04-10 19:42:00,
2013-04-10 13:53:00,29.0,21.0,-100.00,NNW,345,9.0,22.0,73,-99.99,,,-99.99,,2013-04-10 19:53:00,
2013-04-10 14:02:00,30.0,22.0,-100.00,NNW,344,7.0,15.0,73,-99.99,,,-99.99,,2013-04-10 20:02:00,
2013-04-10 14:12:00,30.0,22.0,-100.00,NNW,344,7.0,15.0,73,-99.99,,,-99.99,,2013-04-10 20:12:00,
2013-04-10 14:22:00,31.0,23.0,-100.00,NNW,343,6.0,16.0,72,-99.99,,,-99.99,,2013-04-10 20:22:00,
2013-04-10 14:32:00,31.0,24.0,-100.00,NNW,345,8.0,17.0,75,-99.99,,,-99.99,,2013-04-10 20:32:00,
2013-04-10 14:42:00,31.0,24.0,-100.00,NNW,345,8.0,17.0,75,-99.99,,,-99.99,,2013-04-10 20:42:00,
2013-04-10 14:52:00,32.0,25.0,-100.00,NNW,344,5.0,13.0,75,-99.99,,,-99.99,,2013-04-10 20:52:00,
2013-04-10 15:02:00,32.0,26.0,-100.00,NNW,346,6.0,13.0,77,-99.99,,,-99.99,,2013-04-10 21:02:00,
2013-04-10 15:12:00,32.0,26.0,-100.00,NNW,346,6.0,13.0,77,-99.99,,,-99.99,,2013-04-10 21:12:00,
2013-04-10 15:22:00,33.0,26.0,-100.00,NNW,339,5.0,14.0,75,-99.99,,,-99.99,,2013-04-10 21:22:00,
2013-04-10 15:32:00,33.0,26.0,-100.00,NNW,341,7.0,14.0,76,-99.99,,,-99.99,,2013-04-10 21:32:00,
2013-04-10 15:42:00,33.0,26.0,-100.00,NNW,341,7.0,14.0,76,-99.99,,,-99.99,,2013-04-10 21:42:00,
2013-04-10 15:53:00,33.0,27.0,-100.00,NNW,343,7.0,15.0,77,-99.99,,,-99.99,,2013-04-10 21:53:00,
2013-04-10 16:03:00,33.0,27.0,-100.00,NNW,344,7.0,15.0,77,-99.99,,,-99.99,,2013-04-10 22:03:00,
2013-04-10 16:12:00,33.0,27.0,-100.00,NNW,344,7.0,15.0,77,-99.99,,,-99.99,,2013-04-10 22:12:00,
2013-04-10 16:22:00,33.0,27.0,-100.00,NNW,343,7.0,16.0,78,-99.99,,,-99.99,,2013-04-10 22:22:00,
2013-04-10 16:33:00,33.0,27.0,-100.00,NNW,344,6.0,15.0,77,-99.99,,,-99.99,,2013-04-10 22:33:00,
2013-04-10 16:42:00,33.0,27.0,-100.00,NNW,344,6.0,15.0,77,-99.99,,,-99.99,,2013-04-10 22:42:00,
2013-04-10 16:53:00,33.0,27.0,-100.00,NNW,343,7.0,16.0,78,-99.99,,,-99.99,,2013-04-10 22:53:00,
2013-04-10 17:02:00,33.0,27.0,-100.00,NNW,345,4.0,11.0,78,-99.99,,,-99.99,,2013-04-10 23:02:00,
2013-04-10 17:12:00,33.0,27.0,-100.00,NNW,345,4.0,11.0,78,-99.99,,,-99.99,,2013-04-10 23:12:00,
2013-04-10 17:22:00,35.0,29.0,-100.00,NNW,344,3.0,9.0,77,-99.99,,,-99.99,,2013-04-10 23:22:00,
2013-04-10 17:32:00,35.0,28.0,-100.00,NNW,343,5.0,12.0,76,-99.99,,,-99.99,,2013-04-10 23:32:00,
2013-04-10 17:42:00,35.0,28.0,-100.00,NNW,343,5.0,12.0,76,-99.99,,,-99.99,,2013-04-10 23:42:00,
2013-04-10 17:52:00,35.0,29.0,-100.00,NNW,338,4.0,11.0,77,-99.99,,,-99.99,,2013-04-10 23:52:00,
2013-04-10 18:02:00,34.0,28.0,-100.00,NNW,335,4.0,11.0,77,-99.99,,,-99.99,,2013-04-11 00:02:00,
2013-04-10 18:12:00,34.0,28.0,-100.00,NNW,335,4.0,11.0,77,-99.99,,,-99.99,,2013-04-11 00:12:00,
2013-04-10 18:22:00,35.0,29.0,-100.00,NNW,340,5.0,13.0,77,-99.99,,,-99.99,,2013-04-11 00:22:00,
2013-04-10 18:32:00,35.0,29.0,-100.00,NNW,341,4.0,11.0,77,-99.99,,,-99.99,,2013-04-11 00:32:00,
2013-04-10 18:42:00,35.0,29.0,-100.00,NNW,341,4.0,11.0,77,-99.99,,,-99.99,,2013-04-11 00:42:00,
2013-04-10 18:53:00,36.0,29.0,-100.00,NNW,337,4.0,8.0,75,-99.99,,,-99.99,,2013-04-11 00:53:00,
2013-04-10 19:02:00,34.0,28.0,-100.00,NNW,347,4.0,10.0,77,-99.99,,,-99.99,,2013-04-11 01:02:00,
2013-04-10 19:12:00,34.0,28.0,-100.00,NNW,347,4.0,10.0,77,-99.99,,,-99.99,,2013-04-11 01:12:00,
2013-04-10 19:22:00,33.0,28.0,-100.00,NNW,344,3.0,9.0,80,-99.99,,,-99.99,,2013-04-11 01:22:00,
2013-04-10 19:32:00,34.0,28.0,-100.00,NNW,334,3.0,8.0,80,-99.99,,,-99.99,,2013-04-11 01:32:00,
2013-04-10 19:42:00,34.0,28.0,-100.00,NNW,334,3.0,8.0,80,-99.99,,,-99.99,,2013-04-11 01:42:00,
2013-04-10 19:52:00,34.0,28.0,-100.00,NNW,337,3.0,10.0,80,-99.99,,,-99.99,,2013-04-11 01:52:00,
2013-04-10 20:02:00,33.0,28.0,-100.00,NNW,348,4.0,11.0,80,-99.99,,,-99.99,,2013-04-11 02:02:00,
2013-04-10 20:12:00,33.0,28.0,-100.00,NNW,348,4.0,11.0,80,-99.99,,,-99.99,,2013-04-11 02:12:00,
2013-04-10 20:22:00,32.0,27.0,-100.00,NNW,347,6.0,11.0,81,-99.99,,,-99.99,,2013-04-11 02:22:00,
2013-04-10 20:32:00,32.0,27.0,-100.00,NNW,343,4.0,9.0,83,-99.99,,,-99.99,,2013-04-11 02:32:00,
2013-04-10 20:42:00,32.0,27.0,-100.00,NNW,343,4.0,9.0,83,-99.99,,,-99.99,,2013-04-11 02:42:00,
2013-04-10 20:52:00,32.0,28.0,-100.00,NNW,333,2.0,8.0,86,-99.99,,,-99.99,,2013-04-11 02:52:00,
2013-04-10 21:02:00,32.0,28.0,-100.00,NNW,340,3.0,9.0,85,-99.99,,,-99.99,,2013-04-11 03:02:00,
2013-04-10 21:12:00,32.0,28.0,-100.00,NNW,340,3.0,9.0,85,-99.99,,,-99.99,,2013-04-11 03:12:00,
2013-04-10 21:22:00,32.0,28.0,-100.00,NNW,340,3.0,7.0,86,-99.99,,,-99.99,,2013-04-11 03:22:00,
2013-04-10 21:33:00,32.0,28.0,-100.00,NNW,346,3.0,7.0,85,-99.99,,,-99.99,,2013-04-11 03:33:00,
2013-04-10 21:43:00,32.0,28.0,-100.00,NNW,346,3.0,7.0,85,-99.99,,,-99.99,,2013-04-11 03:43:00,
2013-04-10 21:53:00,32.0,28.0,-100.00,NW,326,1.0,4.0,86,-99.99,,,-99.99,,2013-04-11 03:53:00,
2013-04-10 22:03:00,32.0,28.0,-100.00,NNW,340,3.0,10.0,86,-99.99,,,-99.99,,2013-04-11 04:03:00,
2013-04-10 22:12:00,32.0,28.0,-100.00,NNW,340,3.0,10.0,86,-99.99,,,-99.99,,2013-04-11 04:12:00,
2013-04-10 22:22:00,33.0,28.0,-100.00,NNW,348,4.0,10.0,82,-99.99,,,-99.99,,2013-04-11 04:22:00,
2013-04-10 22:33:00,34.0,29.0,-100.00,NNW,344,3.0,13.0,81,-99.99,,,-99.99,,2013-04-11 04:33:00,
2013-04-10 22:42:00,34.0,29.0,-100.00,NNW,344,3.0,13.0,81,-99.99,,,-99.99,,2013-04-11 04:42:00,
2013-04-10 22:53:00,33.0,28.0,-100.00,North,354,3.0,8.0,82,-99.99,,,-99.99,,2013-04-11 04:53:00,
2013-04-10 23:02:00,33.0,28.0,-100.00,North,349,3.0,7.0,83,-99.99,,,-99.99,,2013-04-11 05:02:00,
2013-04-10 23:12:00,33.0,28.0,-100.00,North,349,3.0,7.0,83,-99.99,,,-99.99,,2013-04-11 05:12:00,
2013-04-10 23:22:00,32.0,28.0,-100.00,North,350,3.0,10.0,84,-99.99,,,-99.99,,2013-04-11 05:22:00,
2013-04-10 23:32:00,33.0,28.0,-100.00,NNW,347,4.0,9.0,82,-99.99,,,-99.99,,2013-04-11 05:32:00,
2013-04-10 23:42:00,33.0,28.0,-100.00,NNW,347,4.0,9.0,82,-99.99,,,-99.99,,2013-04-11 05:42:00,
2013-04-10 23:52:00,33.0,28.0,-100.00,NNW,342,3.0,7.0,83,-99.99,,,-99.99,,2013-04-11 05:52:00,